sensor_id;sensor_type;location;lat;lon;timestamp;P1;durP1;ratioP1;P2;durP2;ratioP2
76117;SDS011;64851;50.232;20.364;2022-12-07T00:00:41;8.00;;;4.90;;
76117;SDS011;64851;50.232;20.364;2022-12-07T00:03:28;9.50;;;4.20;;
76117;SDS011;64851;50.232;20.364;2022-12-07T00:06:04;9.70;;;4.70;;
76117;SDS011;64851;50.232;20.364;2022-12-07T00:09:02;8.50;;;4.70;;
76117;SDS011;64851;50.232;20.364;2022-12-07T00:11:59;10.10;;;4.50;;
76117;SDS011;64851;50.232;20.364;2022-12-07T00:14:34;8.40;;;4.00;;
76117;SDS011;64851;50.232;20.364;2022-12-07T00:17:22;7.00;;;3.30;;
76117;SDS011;64851;50.232;20.364;2022-12-07T00:19:57;6.50;;;3.30;;
76117;SDS011;64851;50.232;20.364;2022-12-07T00:22:52;8.60;;;4.30;;
76117;SDS011;64851;50.232;20.364;2022-12-07T00:25:40;7.00;;;3.70;;
76117;SDS011;64851;50.232;20.364;2022-12-07T00:28:37;5.80;;;3.80;;
76117;SDS011;64851;50.232;20.364;2022-12-07T00:31:14;6.40;;;3.40;;
76117;SDS011;64851;50.232;20.364;2022-12-07T00:34:15;6.60;;;3.50;;
76117;SDS011;64851;50.232;20.364;2022-12-07T00:37:12;7.60;;;3.40;;
76117;SDS011;64851;50.232;20.364;2022-12-07T00:39:47;8.50;;;4.20;;
76117;SDS011;64851;50.232;20.364;2022-12-07T00:42:35;6.20;;;3.70;;
76117;SDS011;64851;50.232;20.364;2022-12-07T00:45:17;7.60;;;3.50;;
76117;SDS011;64851;50.232;20.364;2022-12-07T00:48:04;7.40;;;3.80;;
76117;SDS011;64851;50.232;20.364;2022-12-07T00:50:39;7.20;;;3.90;;
76117;SDS011;64851;50.232;20.364;2022-12-07T00:53:26;8.40;;;4.70;;
76117;SDS011;64851;50.232;20.364;2022-12-07T00:56:15;7.30;;;4.00;;
76117;SDS011;64851;50.232;20.364;2022-12-07T00:59:05;8.10;;;4.60;;
76117;SDS011;64851;50.232;20.364;2022-12-07T01:01:40;7.80;;;4.00;;
76117;SDS011;64851;50.232;20.364;2022-12-07T01:04:27;7.90;;;4.00;;
76117;SDS011;64851;50.232;20.364;2022-12-07T01:07:02;8.70;;;3.80;;
76117;SDS011;64851;50.232;20.364;2022-12-07T01:09:49;10.00;;;4.50;;
76117;SDS011;64851;50.232;20.364;2022-12-07T01:12:24;7.50;;;4.40;;
76117;SDS011;64851;50.232;20.364;2022-12-07T01:15:11;8.70;;;4.10;;
76117;SDS011;64851;50.232;20.364;2022-12-07T01:17:46;6.90;;;4.10;;
76117;SDS011;64851;50.232;20.364;2022-12-07T01:20:35;8.30;;;4.10;;
76117;SDS011;64851;50.232;20.364;2022-12-07T01:23:17;8.40;;;4.00;;
76117;SDS011;64851;50.232;20.364;2022-12-07T01:26:13;6.90;;;3.70;;
76117;SDS011;64851;50.232;20.364;2022-12-07T01:28:49;7.70;;;4.10;;
76117;SDS011;64851;50.232;20.364;2022-12-07T01:31:39;8.70;;;4.00;;
76117;SDS011;64851;50.232;20.364;2022-12-07T01:34:14;6.70;;;3.40;;
76117;SDS011;64851;50.232;20.364;2022-12-07T01:37:09;9.10;;;3.90;;
76117;SDS011;64851;50.232;20.364;2022-12-07T01:40:05;6.80;;;3.40;;
76117;SDS011;64851;50.232;20.364;2022-12-07T01:42:41;7.30;;;3.50;;
76117;SDS011;64851;50.232;20.364;2022-12-07T01:45:37;6.60;;;3.30;;
76117;SDS011;64851;50.232;20.364;2022-12-07T01:48:36;7.80;;;4.00;;
76117;SDS011;64851;50.232;20.364;2022-12-07T01:51:13;8.10;;;3.80;;
76117;SDS011;64851;50.232;20.364;2022-12-07T01:54:01;8.10;;;3.80;;
76117;SDS011;64851;50.232;20.364;2022-12-07T01:56:36;7.10;;;3.40;;
76117;SDS011;64851;50.232;20.364;2022-12-07T01:59:25;6.20;;;3.60;;
76117;SDS011;64851;50.232;20.364;2022-12-07T02:02:00;8.90;;;4.00;;
76117;SDS011;64851;50.232;20.364;2022-12-07T02:04:57;7.50;;;3.80;;
76117;SDS011;64851;50.232;20.364;2022-12-07T02:07:55;7.60;;;3.70;;
76117;SDS011;64851;50.232;20.364;2022-12-07T02:10:31;7.70;;;3.60;;
76117;SDS011;64851;50.232;20.364;2022-12-07T02:13:27;8.20;;;4.30;;
76117;SDS011;64851;50.232;20.364;2022-12-07T02:31:19;6.10;;;3.30;;
76117;SDS011;64851;50.232;20.364;2022-12-07T02:34:07;8.60;;;3.50;;
76117;SDS011;64851;50.232;20.364;2022-12-07T02:36:52;7.00;;;3.40;;
76117;SDS011;64851;50.232;20.364;2022-12-07T02:39:44;6.30;;;3.40;;
76117;SDS011;64851;50.232;20.364;2022-12-07T02:42:33;6.60;;;2.80;;
76117;SDS011;64851;50.232;20.364;2022-12-07T02:45:18;6.00;;;3.00;;
76117;SDS011;64851;50.232;20.364;2022-12-07T02:48:03;5.30;;;2.90;;
76117;SDS011;64851;50.232;20.364;2022-12-07T02:50:48;5.70;;;2.80;;
76117;SDS011;64851;50.232;20.364;2022-12-07T02:53:34;6.70;;;3.00;;
76117;SDS011;64851;50.232;20.364;2022-12-07T03:11:09;8.50;;;3.30;;
76117;SDS011;64851;50.232;20.364;2022-12-07T03:14:15;4.40;;;2.00;;
76117;SDS011;64851;50.232;20.364;2022-12-07T03:19:54;4.10;;;1.80;;
76117;SDS011;64851;50.232;20.364;2022-12-07T03:22:33;4.30;;;1.60;;
76117;SDS011;64851;50.232;20.364;2022-12-07T03:25:23;4.00;;;1.70;;
76117;SDS011;64851;50.232;20.364;2022-12-07T03:27:59;4.10;;;1.70;;
76117;SDS011;64851;50.232;20.364;2022-12-07T03:30:58;4.30;;;1.90;;
76117;SDS011;64851;50.232;20.364;2022-12-07T03:33:52;3.80;;;1.70;;
76117;SDS011;64851;50.232;20.364;2022-12-07T03:36:50;4.20;;;1.80;;
76117;SDS011;64851;50.232;20.364;2022-12-07T03:39:41;4.30;;;2.10;;
76117;SDS011;64851;50.232;20.364;2022-12-07T03:42:31;3.30;;;2.10;;
76117;SDS011;64851;50.232;20.364;2022-12-07T03:45:07;4.30;;;2.20;;
76117;SDS011;64851;50.232;20.364;2022-12-07T03:48:03;4.20;;;2.10;;
76117;SDS011;64851;50.232;20.364;2022-12-07T03:50:54;4.70;;;2.10;;
76117;SDS011;64851;50.232;20.364;2022-12-07T03:53:49;5.00;;;2.40;;
76117;SDS011;64851;50.232;20.364;2022-12-07T03:56:31;3.80;;;2.00;;
76117;SDS011;64851;50.232;20.364;2022-12-07T03:59:19;4.10;;;2.10;;
76117;SDS011;64851;50.232;20.364;2022-12-07T04:01:56;3.90;;;1.70;;
76117;SDS011;64851;50.232;20.364;2022-12-07T04:04:46;4.00;;;2.10;;
76117;SDS011;64851;50.232;20.364;2022-12-07T04:07:21;4.30;;;2.20;;
76117;SDS011;64851;50.232;20.364;2022-12-07T04:10:17;5.30;;;1.80;;
76117;SDS011;64851;50.232;20.364;2022-12-07T04:13:12;7.50;;;2.60;;
76117;SDS011;64851;50.232;20.364;2022-12-07T04:15:48;4.70;;;2.40;;
76117;SDS011;64851;50.232;20.364;2022-12-07T04:18:42;5.00;;;2.50;;
76117;SDS011;64851;50.232;20.364;2022-12-07T04:21:18;4.40;;;2.50;;
76117;SDS011;64851;50.232;20.364;2022-12-07T04:24:06;4.80;;;2.20;;
76117;SDS011;64851;50.232;20.364;2022-12-07T04:26:48;5.00;;;2.90;;
76117;SDS011;64851;50.232;20.364;2022-12-07T04:29:29;4.80;;;2.50;;
76117;SDS011;64851;50.232;20.364;2022-12-07T04:32:11;4.90;;;2.80;;
76117;SDS011;64851;50.232;20.364;2022-12-07T04:34:53;6.00;;;2.50;;
76117;SDS011;64851;50.232;20.364;2022-12-07T04:37:35;5.40;;;2.80;;
76117;SDS011;64851;50.232;20.364;2022-12-07T04:40:17;5.20;;;2.80;;
76117;SDS011;64851;50.232;20.364;2022-12-07T04:42:59;4.80;;;2.70;;
76117;SDS011;64851;50.232;20.364;2022-12-07T04:48:21;4.40;;;2.40;;
76117;SDS011;64851;50.232;20.364;2022-12-07T04:51:03;4.10;;;2.10;;
76117;SDS011;64851;50.232;20.364;2022-12-07T04:53:45;5.20;;;2.50;;
76117;SDS011;64851;50.232;20.364;2022-12-07T04:56:33;5.70;;;2.90;;
76117;SDS011;64851;50.232;20.364;2022-12-07T04:59:16;5.30;;;2.80;;
76117;SDS011;64851;50.232;20.364;2022-12-07T05:02:04;5.90;;;3.20;;
76117;SDS011;64851;50.232;20.364;2022-12-07T05:04:40;6.20;;;3.00;;
76117;SDS011;64851;50.232;20.364;2022-12-07T05:07:28;6.70;;;3.30;;
76117;SDS011;64851;50.232;20.364;2022-12-07T05:10:04;5.60;;;3.20;;
76117;SDS011;64851;50.232;20.364;2022-12-07T05:12:52;7.40;;;3.90;;
76117;SDS011;64851;50.232;20.364;2022-12-07T05:15:28;4.70;;;3.10;;
76117;SDS011;64851;50.232;20.364;2022-12-07T05:18:16;6.90;;;3.40;;
76117;SDS011;64851;50.232;20.364;2022-12-07T05:20:51;6.00;;;4.00;;
76117;SDS011;64851;50.232;20.364;2022-12-07T05:23:39;5.90;;;3.30;;
76117;SDS011;64851;50.232;20.364;2022-12-07T05:26:34;6.30;;;3.40;;
76117;SDS011;64851;50.232;20.364;2022-12-07T05:29:13;7.80;;;3.90;;
76117;SDS011;64851;50.232;20.364;2022-12-07T05:32:02;6.00;;;3.10;;
76117;SDS011;64851;50.232;20.364;2022-12-07T05:34:37;6.30;;;3.20;;
76117;SDS011;64851;50.232;20.364;2022-12-07T05:37:25;6.70;;;3.60;;
76117;SDS011;64851;50.232;20.364;2022-12-07T05:40:00;6.90;;;3.60;;
76117;SDS011;64851;50.232;20.364;2022-12-07T05:42:49;6.80;;;3.40;;
76117;SDS011;64851;50.232;20.364;2022-12-07T05:45:31;6.60;;;3.40;;
76117;SDS011;64851;50.232;20.364;2022-12-07T05:48:25;8.00;;;3.70;;
76117;SDS011;64851;50.232;20.364;2022-12-07T05:51:00;6.50;;;3.20;;
76117;SDS011;64851;50.232;20.364;2022-12-07T05:53:48;6.90;;;3.50;;
76117;SDS011;64851;50.232;20.364;2022-12-07T05:56:23;7.20;;;3.60;;
76117;SDS011;64851;50.232;20.364;2022-12-07T05:59:18;7.10;;;3.60;;
76117;SDS011;64851;50.232;20.364;2022-12-07T06:02:15;8.90;;;3.90;;
76117;SDS011;64851;50.232;20.364;2022-12-07T06:04:50;7.60;;;3.20;;
76117;SDS011;64851;50.232;20.364;2022-12-07T06:07:38;6.20;;;2.80;;
76117;SDS011;64851;50.232;20.364;2022-12-07T06:10:13;6.50;;;3.30;;
76117;SDS011;64851;50.232;20.364;2022-12-07T06:13:08;6.90;;;3.30;;
76117;SDS011;64851;50.232;20.364;2022-12-07T06:15:44;7.00;;;3.00;;
76117;SDS011;64851;50.232;20.364;2022-12-07T06:18:32;6.80;;;3.70;;
76117;SDS011;64851;50.232;20.364;2022-12-07T06:21:07;8.40;;;3.80;;
76117;SDS011;64851;50.232;20.364;2022-12-07T06:23:54;7.40;;;3.20;;
76117;SDS011;64851;50.232;20.364;2022-12-07T06:26:49;8.30;;;3.40;;
76117;SDS011;64851;50.232;20.364;2022-12-07T06:29:24;7.30;;;3.30;;
76117;SDS011;64851;50.232;20.364;2022-12-07T06:32:12;5.80;;;3.20;;
76117;SDS011;64851;50.232;20.364;2022-12-07T06:34:47;7.10;;;3.20;;
76117;SDS011;64851;50.232;20.364;2022-12-07T06:37:34;7.40;;;3.50;;
76117;SDS011;64851;50.232;20.364;2022-12-07T06:40:09;6.70;;;3.30;;
76117;SDS011;64851;50.232;20.364;2022-12-07T06:42:57;6.10;;;3.20;;
76117;SDS011;64851;50.232;20.364;2022-12-07T06:45:32;5.90;;;3.30;;
76117;SDS011;64851;50.232;20.364;2022-12-07T06:48:20;6.10;;;3.40;;
76117;SDS011;64851;50.232;20.364;2022-12-07T06:50:56;6.70;;;3.50;;
76117;SDS011;64851;50.232;20.364;2022-12-07T06:53:50;6.90;;;3.70;;
76117;SDS011;64851;50.232;20.364;2022-12-07T06:56:25;6.90;;;3.80;;
76117;SDS011;64851;50.232;20.364;2022-12-07T06:59:13;6.80;;;3.10;;
76117;SDS011;64851;50.232;20.364;2022-12-07T07:01:48;6.70;;;3.10;;
76117;SDS011;64851;50.232;20.364;2022-12-07T07:04:43;8.20;;;4.10;;
76117;SDS011;64851;50.232;20.364;2022-12-07T07:07:38;6.20;;;3.00;;
76117;SDS011;64851;50.232;20.364;2022-12-07T07:10:34;8.40;;;4.10;;
76117;SDS011;64851;50.232;20.364;2022-12-07T07:13:29;7.50;;;3.70;;
76117;SDS011;64851;50.232;20.364;2022-12-07T07:16:24;6.90;;;3.70;;
76117;SDS011;64851;50.232;20.364;2022-12-07T07:18:59;7.20;;;3.90;;
76117;SDS011;64851;50.232;20.364;2022-12-07T07:21:47;6.40;;;3.70;;
76117;SDS011;64851;50.232;20.364;2022-12-07T07:24:22;7.00;;;3.60;;
76117;SDS011;64851;50.232;20.364;2022-12-07T07:27:10;9.60;;;4.60;;
76117;SDS011;64851;50.232;20.364;2022-12-07T07:29:46;7.70;;;4.00;;
76117;SDS011;64851;50.232;20.364;2022-12-07T07:32:33;10.60;;;4.30;;
76117;SDS011;64851;50.232;20.364;2022-12-07T07:35:08;10.20;;;5.70;;
76117;SDS011;64851;50.232;20.364;2022-12-07T07:38:03;8.90;;;4.40;;
76117;SDS011;64851;50.232;20.364;2022-12-07T07:40:58;11.90;;;5.30;;
76117;SDS011;64851;50.232;20.364;2022-12-07T07:43:34;10.30;;;4.90;;
76117;SDS011;64851;50.232;20.364;2022-12-07T07:46:22;11.20;;;5.60;;
76117;SDS011;64851;50.232;20.364;2022-12-07T07:48:57;11.50;;;6.80;;
76117;SDS011;64851;50.232;20.364;2022-12-07T07:51:45;12.40;;;5.80;;
76117;SDS011;64851;50.232;20.364;2022-12-07T07:54:27;14.10;;;6.00;;
76117;SDS011;64851;50.232;20.364;2022-12-07T07:57:07;10.60;;;4.60;;
76117;SDS011;64851;50.232;20.364;2022-12-07T07:59:49;10.10;;;4.40;;
76117;SDS011;64851;50.232;20.364;2022-12-07T08:02:40;11.30;;;5.30;;
76117;SDS011;64851;50.232;20.364;2022-12-07T08:14:31;11.00;;;5.30;;
76117;SDS011;64851;50.232;20.364;2022-12-07T08:17:26;12.00;;;6.00;;
76117;SDS011;64851;50.232;20.364;2022-12-07T08:20:01;11.00;;;5.60;;
76117;SDS011;64851;50.232;20.364;2022-12-07T08:22:49;11.80;;;6.10;;
76117;SDS011;64851;50.232;20.364;2022-12-07T08:25:24;11.10;;;5.50;;
76117;SDS011;64851;50.232;20.364;2022-12-07T08:28:12;9.40;;;5.20;;
76117;SDS011;64851;50.232;20.364;2022-12-07T08:30:47;10.60;;;4.80;;
76117;SDS011;64851;50.232;20.364;2022-12-07T08:33:35;10.60;;;4.50;;
76117;SDS011;64851;50.232;20.364;2022-12-07T08:36:11;9.70;;;5.10;;
76117;SDS011;64851;50.232;20.364;2022-12-07T08:38:59;9.10;;;4.00;;
76117;SDS011;64851;50.232;20.364;2022-12-07T08:41:54;9.00;;;4.00;;
76117;SDS011;64851;50.232;20.364;2022-12-07T08:44:49;10.80;;;4.60;;
76117;SDS011;64851;50.232;20.364;2022-12-07T08:47:46;10.80;;;5.50;;
76117;SDS011;64851;50.232;20.364;2022-12-07T08:50:32;7.60;;;4.30;;
76117;SDS011;64851;50.232;20.364;2022-12-07T08:53:28;11.70;;;5.20;;
76117;SDS011;64851;50.232;20.364;2022-12-07T08:56:04;11.10;;;5.30;;
76117;SDS011;64851;50.232;20.364;2022-12-07T08:58:52;11.70;;;5.60;;
76117;SDS011;64851;50.232;20.364;2022-12-07T09:01:27;11.90;;;5.50;;
76117;SDS011;64851;50.232;20.364;2022-12-07T09:04:22;9.90;;;5.10;;
76117;SDS011;64851;50.232;20.364;2022-12-07T09:07:17;8.90;;;5.10;;
76117;SDS011;64851;50.232;20.364;2022-12-07T09:09:52;8.60;;;4.70;;
76117;SDS011;64851;50.232;20.364;2022-12-07T09:12:41;10.60;;;5.30;;
76117;SDS011;64851;50.232;20.364;2022-12-07T09:15:16;11.30;;;5.90;;
76117;SDS011;64851;50.232;20.364;2022-12-07T09:18:11;10.40;;;5.30;;
76117;SDS011;64851;50.232;20.364;2022-12-07T09:21:06;10.50;;;5.40;;
76117;SDS011;64851;50.232;20.364;2022-12-07T09:23:41;12.60;;;6.20;;
76117;SDS011;64851;50.232;20.364;2022-12-07T09:26:29;10.40;;;6.00;;
76117;SDS011;64851;50.232;20.364;2022-12-07T09:29:04;10.80;;;5.60;;
76117;SDS011;64851;50.232;20.364;2022-12-07T09:32:01;13.20;;;5.90;;
76117;SDS011;64851;50.232;20.364;2022-12-07T09:34:38;10.00;;;4.70;;
76117;SDS011;64851;50.232;20.364;2022-12-07T09:37:33;9.40;;;5.00;;
76117;SDS011;64851;50.232;20.364;2022-12-07T09:40:28;11.00;;;5.50;;
76117;SDS011;64851;50.232;20.364;2022-12-07T09:43:03;12.20;;;5.60;;
76117;SDS011;64851;50.232;20.364;2022-12-07T09:45:52;10.40;;;4.90;;
76117;SDS011;64851;50.232;20.364;2022-12-07T09:48:37;9.10;;;4.40;;
76117;SDS011;64851;50.232;20.364;2022-12-07T09:51:25;9.70;;;4.80;;
76117;SDS011;64851;50.232;20.364;2022-12-07T09:54:00;8.60;;;4.20;;
76117;SDS011;64851;50.232;20.364;2022-12-07T09:56:56;7.50;;;4.10;;
76117;SDS011;64851;50.232;20.364;2022-12-07T09:59:31;8.50;;;4.20;;
76117;SDS011;64851;50.232;20.364;2022-12-07T10:02:40;8.60;;;4.60;;
76117;SDS011;64851;50.232;20.364;2022-12-07T10:05:18;6.70;;;3.40;;
76117;SDS011;64851;50.232;20.364;2022-12-07T10:08:10;6.90;;;3.30;;
76117;SDS011;64851;50.232;20.364;2022-12-07T10:10:54;5.70;;;3.20;;
76117;SDS011;64851;50.232;20.364;2022-12-07T10:13:39;8.90;;;3.90;;
76117;SDS011;64851;50.232;20.364;2022-12-07T10:19:20;8.70;;;4.30;;
76117;SDS011;64851;50.232;20.364;2022-12-07T10:22:13;11.30;;;4.60;;
76117;SDS011;64851;50.232;20.364;2022-12-07T10:25:09;6.40;;;3.20;;
76117;SDS011;64851;50.232;20.364;2022-12-07T10:28:13;10.80;;;5.50;;
76117;SDS011;64851;50.232;20.364;2022-12-07T10:31:03;7.40;;;3.90;;
76117;SDS011;64851;50.232;20.364;2022-12-07T10:33:57;7.80;;;3.60;;
76117;SDS011;64851;50.232;20.364;2022-12-07T10:36:39;8.60;;;4.00;;
76117;SDS011;64851;50.232;20.364;2022-12-07T10:39:21;6.40;;;2.50;;
76117;SDS011;64851;50.232;20.364;2022-12-07T10:42:04;7.00;;;3.60;;
76117;SDS011;64851;50.232;20.364;2022-12-07T10:44:47;8.20;;;4.50;;
76117;SDS011;64851;50.232;20.364;2022-12-07T10:47:38;8.70;;;4.20;;
76117;SDS011;64851;50.232;20.364;2022-12-07T11:05:27;13.40;;;9.50;;
76117;SDS011;64851;50.232;20.364;2022-12-07T11:14:00;15.20;;;9.20;;
76117;SDS011;64851;50.232;20.364;2022-12-07T11:16:59;15.40;;;8.00;;
76117;SDS011;64851;50.232;20.364;2022-12-07T11:22:40;10.60;;;6.30;;
76117;SDS011;64851;50.232;20.364;2022-12-07T11:34:15;9.50;;;4.40;;
76117;SDS011;64851;50.232;20.364;2022-12-07T11:36:53;7.60;;;3.90;;
76117;SDS011;64851;50.232;20.364;2022-12-07T11:39:44;9.60;;;4.30;;
76117;SDS011;64851;50.232;20.364;2022-12-07T11:42:36;10.00;;;4.90;;
76117;SDS011;64851;50.232;20.364;2022-12-07T11:45:37;8.50;;;4.30;;
76117;SDS011;64851;50.232;20.364;2022-12-07T11:48:40;8.70;;;4.20;;
76117;SDS011;64851;50.232;20.364;2022-12-07T11:51:28;7.30;;;3.50;;
76117;SDS011;64851;50.232;20.364;2022-12-07T11:54:12;6.00;;;3.50;;
76117;SDS011;64851;50.232;20.364;2022-12-07T11:56:59;6.60;;;3.90;;
76117;SDS011;64851;50.232;20.364;2022-12-07T11:59:57;6.10;;;3.50;;
76117;SDS011;64851;50.232;20.364;2022-12-07T12:02:52;6.30;;;3.70;;
76117;SDS011;64851;50.232;20.364;2022-12-07T12:12:07;6.70;;;3.50;;
76117;SDS011;64851;50.232;20.364;2022-12-07T12:18:20;4.90;;;3.00;;
76117;SDS011;64851;50.232;20.364;2022-12-07T12:21:12;6.50;;;3.80;;
76117;SDS011;64851;50.232;20.364;2022-12-07T12:24:04;6.70;;;3.50;;
76117;SDS011;64851;50.232;20.364;2022-12-07T12:27:05;6.60;;;3.70;;
76117;SDS011;64851;50.232;20.364;2022-12-07T12:30:05;7.80;;;4.50;;
76117;SDS011;64851;50.232;20.364;2022-12-07T12:32:44;7.40;;;3.70;;
76117;SDS011;64851;50.232;20.364;2022-12-07T12:35:34;6.30;;;3.80;;
76117;SDS011;64851;50.232;20.364;2022-12-07T12:50:37;7.70;;;3.50;;
76117;SDS011;64851;50.232;20.364;2022-12-07T12:53:22;7.80;;;3.80;;
76117;SDS011;64851;50.232;20.364;2022-12-07T12:58:46;8.70;;;3.90;;
76117;SDS011;64851;50.232;20.364;2022-12-07T13:01:41;7.50;;;3.90;;
76117;SDS011;64851;50.232;20.364;2022-12-07T13:04:52;8.20;;;3.80;;
76117;SDS011;64851;50.232;20.364;2022-12-07T13:08:01;6.30;;;3.70;;
76117;SDS011;64851;50.232;20.364;2022-12-07T13:11:15;8.40;;;3.80;;
76117;SDS011;64851;50.232;20.364;2022-12-07T13:13:52;6.40;;;3.20;;
76117;SDS011;64851;50.232;20.364;2022-12-07T13:16:41;6.80;;;3.40;;
76117;SDS011;64851;50.232;20.364;2022-12-07T13:25:09;7.50;;;3.10;;
76117;SDS011;64851;50.232;20.364;2022-12-07T13:28:23;6.70;;;3.50;;
76117;SDS011;64851;50.232;20.364;2022-12-07T13:31:09;6.90;;;4.00;;
76117;SDS011;64851;50.232;20.364;2022-12-07T13:34:03;6.30;;;3.30;;
76117;SDS011;64851;50.232;20.364;2022-12-07T13:36:43;7.30;;;3.70;;
76117;SDS011;64851;50.232;20.364;2022-12-07T13:39:45;6.30;;;3.50;;
76117;SDS011;64851;50.232;20.364;2022-12-07T13:42:46;6.30;;;3.50;;
76117;SDS011;64851;50.232;20.364;2022-12-07T13:45:41;7.20;;;3.70;;
76117;SDS011;64851;50.232;20.364;2022-12-07T13:48:43;8.10;;;3.80;;
76117;SDS011;64851;50.232;20.364;2022-12-07T13:51:34;7.20;;;3.60;;
76117;SDS011;64851;50.232;20.364;2022-12-07T13:54:11;6.70;;;3.60;;
76117;SDS011;64851;50.232;20.364;2022-12-07T13:57:00;7.30;;;3.60;;
76117;SDS011;64851;50.232;20.364;2022-12-07T13:59:35;8.50;;;4.20;;
76117;SDS011;64851;50.232;20.364;2022-12-07T14:02:30;11.30;;;4.20;;
76117;SDS011;64851;50.232;20.364;2022-12-07T14:05:22;8.20;;;3.90;;
76117;SDS011;64851;50.232;20.364;2022-12-07T14:13:36;7.80;;;3.60;;
76117;SDS011;64851;50.232;20.364;2022-12-07T14:25:18;6.30;;;3.10;;
76117;SDS011;64851;50.232;20.364;2022-12-07T14:31:40;4.80;;;1.90;;
76117;SDS011;64851;50.232;20.364;2022-12-07T14:34:15;4.40;;;2.20;;
76117;SDS011;64851;50.232;20.364;2022-12-07T14:37:03;5.50;;;2.40;;
76117;SDS011;64851;50.232;20.364;2022-12-07T14:39:41;4.40;;;2.60;;
76117;SDS011;64851;50.232;20.364;2022-12-07T14:42:29;5.20;;;2.00;;
76117;SDS011;64851;50.232;20.364;2022-12-07T14:45:05;4.30;;;2.40;;
76117;SDS011;64851;50.232;20.364;2022-12-07T14:48:00;5.70;;;2.50;;
76117;SDS011;64851;50.232;20.364;2022-12-07T14:50:55;5.60;;;2.50;;
76117;SDS011;64851;50.232;20.364;2022-12-07T14:54:04;5.10;;;2.90;;
76117;SDS011;64851;50.232;20.364;2022-12-07T14:56:40;5.10;;;2.50;;
76117;SDS011;64851;50.232;20.364;2022-12-07T14:59:32;4.90;;;2.50;;
76117;SDS011;64851;50.232;20.364;2022-12-07T15:02:14;5.80;;;2.60;;
76117;SDS011;64851;50.232;20.364;2022-12-07T15:05:02;5.10;;;2.80;;
76117;SDS011;64851;50.232;20.364;2022-12-07T15:07:42;6.10;;;3.20;;
76117;SDS011;64851;50.232;20.364;2022-12-07T15:10:33;5.90;;;3.00;;
76117;SDS011;64851;50.232;20.364;2022-12-07T15:13:10;6.10;;;3.00;;
76117;SDS011;64851;50.232;20.364;2022-12-07T15:16:19;5.70;;;3.50;;
76117;SDS011;64851;50.232;20.364;2022-12-07T15:19:14;8.00;;;4.00;;
76117;SDS011;64851;50.232;20.364;2022-12-07T15:22:09;9.20;;;4.30;;
76117;SDS011;64851;50.232;20.364;2022-12-07T15:24:45;6.20;;;3.40;;
76117;SDS011;64851;50.232;20.364;2022-12-07T15:27:33;9.50;;;4.70;;
76117;SDS011;64851;50.232;20.364;2022-12-07T15:30:10;7.90;;;4.00;;
76117;SDS011;64851;50.232;20.364;2022-12-07T15:32:58;6.60;;;3.60;;
76117;SDS011;64851;50.232;20.364;2022-12-07T15:35:40;8.00;;;4.10;;
76117;SDS011;64851;50.232;20.364;2022-12-07T15:38:29;7.10;;;3.40;;
76117;SDS011;64851;50.232;20.364;2022-12-07T15:41:25;6.80;;;3.80;;
76117;SDS011;64851;50.232;20.364;2022-12-07T15:44:14;7.30;;;3.70;;
76117;SDS011;64851;50.232;20.364;2022-12-07T15:47:08;7.80;;;3.80;;
76117;SDS011;64851;50.232;20.364;2022-12-07T15:49:55;9.00;;;4.40;;
76117;SDS011;64851;50.232;20.364;2022-12-07T15:52:30;7.10;;;4.30;;
76117;SDS011;64851;50.232;20.364;2022-12-07T15:55:18;8.80;;;4.50;;
76117;SDS011;64851;50.232;20.364;2022-12-07T15:57:53;10.60;;;4.00;;
76117;SDS011;64851;50.232;20.364;2022-12-07T16:00:40;6.40;;;3.70;;
76117;SDS011;64851;50.232;20.364;2022-12-07T16:03:16;7.00;;;3.80;;
76117;SDS011;64851;50.232;20.364;2022-12-07T16:06:04;6.70;;;3.50;;
76117;SDS011;64851;50.232;20.364;2022-12-07T16:08:46;7.30;;;4.20;;
76117;SDS011;64851;50.232;20.364;2022-12-07T16:11:33;7.60;;;4.10;;
76117;SDS011;64851;50.232;20.364;2022-12-07T16:14:08;7.40;;;3.70;;
76117;SDS011;64851;50.232;20.364;2022-12-07T16:16:55;8.20;;;4.50;;
76117;SDS011;64851;50.232;20.364;2022-12-07T16:19:30;8.60;;;4.60;;
76117;SDS011;64851;50.232;20.364;2022-12-07T16:22:18;7.70;;;4.00;;
76117;SDS011;64851;50.232;20.364;2022-12-07T16:24:52;8.40;;;4.30;;
76117;SDS011;64851;50.232;20.364;2022-12-07T16:27:47;9.10;;;4.80;;
76117;SDS011;64851;50.232;20.364;2022-12-07T16:30:42;9.40;;;5.50;;
76117;SDS011;64851;50.232;20.364;2022-12-07T16:33:17;7.90;;;3.90;;
76117;SDS011;64851;50.232;20.364;2022-12-07T16:36:06;7.30;;;3.90;;
76117;SDS011;64851;50.232;20.364;2022-12-07T16:38:51;10.20;;;5.10;;
76117;SDS011;64851;50.232;20.364;2022-12-07T16:41:41;10.00;;;4.50;;
76117;SDS011;64851;50.232;20.364;2022-12-07T16:44:17;10.30;;;4.80;;
76117;SDS011;64851;50.232;20.364;2022-12-07T16:47:05;9.60;;;4.50;;
76117;SDS011;64851;50.232;20.364;2022-12-07T16:49:40;8.90;;;5.20;;
76117;SDS011;64851;50.232;20.364;2022-12-07T16:52:35;9.40;;;5.40;;
76117;SDS011;64851;50.232;20.364;2022-12-07T16:55:35;12.70;;;5.20;;
76117;SDS011;64851;50.232;20.364;2022-12-07T16:58:33;10.50;;;5.90;;
76117;SDS011;64851;50.232;20.364;2022-12-07T17:01:09;9.80;;;5.00;;
76117;SDS011;64851;50.232;20.364;2022-12-07T17:03:59;9.10;;;4.80;;
76117;SDS011;64851;50.232;20.364;2022-12-07T17:06:34;10.00;;;4.50;;
76117;SDS011;64851;50.232;20.364;2022-12-07T17:09:22;10.90;;;4.90;;
76117;SDS011;64851;50.232;20.364;2022-12-07T17:11:57;9.60;;;5.10;;
76117;SDS011;64851;50.232;20.364;2022-12-07T17:14:54;7.00;;;4.20;;
76117;SDS011;64851;50.232;20.364;2022-12-07T17:17:56;9.20;;;4.90;;
76117;SDS011;64851;50.232;20.364;2022-12-07T17:20:45;8.70;;;5.00;;
76117;SDS011;64851;50.232;20.364;2022-12-07T17:23:20;8.40;;;4.30;;
76117;SDS011;64851;50.232;20.364;2022-12-07T17:26:22;8.90;;;4.60;;
76117;SDS011;64851;50.232;20.364;2022-12-07T17:29:18;8.70;;;4.60;;
76117;SDS011;64851;50.232;20.364;2022-12-07T17:32:15;8.00;;;4.10;;
76117;SDS011;64851;50.232;20.364;2022-12-07T17:34:58;11.70;;;5.60;;
76117;SDS011;64851;50.232;20.364;2022-12-07T17:37:47;10.30;;;5.30;;
76117;SDS011;64851;50.232;20.364;2022-12-07T17:40:23;10.40;;;4.90;;
76117;SDS011;64851;50.232;20.364;2022-12-07T17:43:19;10.60;;;4.90;;
76117;SDS011;64851;50.232;20.364;2022-12-07T17:45:54;9.60;;;5.30;;
76117;SDS011;64851;50.232;20.364;2022-12-07T17:48:44;10.70;;;5.50;;
76117;SDS011;64851;50.232;20.364;2022-12-07T17:51:24;9.50;;;4.60;;
76117;SDS011;64851;50.232;20.364;2022-12-07T17:54:32;11.20;;;5.50;;
76117;SDS011;64851;50.232;20.364;2022-12-07T17:57:07;10.80;;;4.80;;
76117;SDS011;64851;50.232;20.364;2022-12-07T18:00:01;10.10;;;4.70;;
76117;SDS011;64851;50.232;20.364;2022-12-07T18:02:37;10.60;;;5.00;;
76117;SDS011;64851;50.232;20.364;2022-12-07T18:05:26;8.90;;;4.00;;
76117;SDS011;64851;50.232;20.364;2022-12-07T18:08:07;8.50;;;3.90;;
76117;SDS011;64851;50.232;20.364;2022-12-07T18:10:48;11.00;;;5.90;;
76117;SDS011;64851;50.232;20.364;2022-12-07T18:13:30;8.40;;;4.00;;
76117;SDS011;64851;50.232;20.364;2022-12-07T18:16:24;11.70;;;5.00;;
76117;SDS011;64851;50.232;20.364;2022-12-07T18:19:08;9.00;;;4.10;;
76117;SDS011;64851;50.232;20.364;2022-12-07T18:21:57;9.60;;;4.90;;
76117;SDS011;64851;50.232;20.364;2022-12-07T18:24:41;9.20;;;4.50;;
76117;SDS011;64851;50.232;20.364;2022-12-07T18:27:31;9.00;;;3.80;;
76117;SDS011;64851;50.232;20.364;2022-12-07T18:30:06;9.30;;;4.50;;
76117;SDS011;64851;50.232;20.364;2022-12-07T18:32:55;9.30;;;4.00;;
76117;SDS011;64851;50.232;20.364;2022-12-07T18:35:31;8.10;;;3.90;;